Panama City, FL (32401)

3:55 AM CST on January 24, 2017 (GMT -0600)
The Cove | | Change Station
Active Advisory: Small Craft Advisory

Elev 15 ft 30.16 °N, 85.65 °W | Updated 43 seconds ago

Clear
Clear
54.0 °F
Feels Like 54.0 °F
N
0.0
Wind Variable Wind from WSW
Gusts 0.0 mph

Today
High -- | Low -- °F
--% Chance of Precip.
Yesterday
High -- | Low -- °F
Precip. -- in
Pressure 29.85 in
Visibility 10.0 miles
Clouds Clear
Dew Point 48 °F
Humidity 80%
Rainfall 0.00 in
Snow Depth Not available.
6:36 AM 5:12 PM
Waning Crescent, 12% visible
METAR KPAM 240856Z AUTO 34010KT 10SM CLR 13/08 A2984 RMK AO2 SLP108 T01270076 53004 $
Pressure 29.85 in
Visibility 10.0 miles
Clouds Clear
Dew Point 48 °F
Humidity 80%
Rainfall 0.00 in
Snow Depth Not available.
6:36 AM 5:12 PM
Waning Crescent, 12% visible
METAR KPAM 240856Z AUTO 34010KT 10SM CLR 13/08 A2984 RMK AO2 SLP108 T01270076 53004 $

Get Your Daily Forecast Email!

Thanks for signing up!

Be on the lookout for a verification email in your inbox.

You'll start receiving the daily forecast at 8 AM.

×

10-Day Weather Forecast

Almanac

Astronomy

Jan. 24, 2017 Rise Set
Actual Time
Civil Twilight
Nautical Twilight
Astronomical Twilight
Moon
Length of Visible Light
Length of Day
Tomorrow will be .
, % of the Moon is Illuminated

Today's Extremes

State Highs State Lows

Community

WunderPhotos

Upload Photos

1,962,540 photos uploaded!

WunderBlog® & News

Nearby

Air Quality

  Air Quality AQ Index Pollutant
Not available.

Snow Depth

Station Depth Elevation

Earthquake Activity

City Distance Mag. Time & Date
Minimum magnitude displayed is 2.5.

Coastal Water Temperatures

Place Temperature

Stations

Nearby Weather Stations

Station Location Temp. Windchill Dew Point Humidity Wind Precip. Elev Updated Type
                   

Watches & Warnings

Small Craft Advisory
Issued: 1:33 PM EST Jan. 23, 2017 – National Weather Service

... Small Craft Advisory remains in effect until 7 am EST
Tuesday...

* winds... northwest winds 20 to 25 knots with gusts to 30
knots... occasionally up to 35 knots.

* Waves/seas... 10 to 12 feet with occasional seas up to 15 feet
offshore.

Precautionary/preparedness actions...

A Small Craft Advisory means that wind speeds of 21 to 33 knots
are expected to produce hazardous wave conditions to small craft.
Inexperienced mariners... especially those operating smaller
vessels should avoid navigating in these conditions.